Time;durP1;ratioP1;P1;durP2;ratioP2;P2;SDS_P1;SDS_P2;PMS_P1;PMS_P2;Temp;Humidity;BMP_temperature;BMP_pressure;BME280_temperature;BME280_humidity;BME280_pressure;Samples;Min_cycle;Max_cycle;Signal;HPM_P1;HPM_P2
2024/01/27 00:01:58;;;;;;;21.92;8.00;;;;;;;;;;5072473;28;20492;-84
2024/01/27 00:04:24;;;;;;;21.65;6.25;;;;;;;;;;5072892;28;20116;-84
2024/01/27 00:06:50;;;;;;;18.25;5.60;;;;;;;;;;5072733;28;20032;-85
2024/01/27 00:09:16;;;;;;;26.25;7.10;;;;;;;;;;5072800;28;20476;-85
2024/01/27 00:11:42;;;;;;;29.35;5.97;;;;;;;;;;5072777;28;20371;-84
2024/01/27 00:14:08;;;;;;;27.30;5.68;;;;;;;;;;5072775;28;20421;-85
2024/01/27 00:16:34;;;;;;;24.45;5.75;;;;;;;;;;5072714;28;20027;-85
2024/01/27 00:19:00;;;;;;;19.60;5.53;;;;;;;;;;5072500;28;20033;-84
2024/01/27 00:21:26;;;;;;;29.15;7.15;;;;;;;;;;5072607;28;20025;-82
2024/01/27 00:23:52;;;;;;;26.75;5.82;;;;;;;;;;5072336;28;20078;-83
2024/01/27 00:26:18;;;;;;;25.17;6.57;;;;;;;;;;5072695;28;20082;-82
2024/01/27 00:28:47;;;;;;;20.65;6.15;;;;;;;;;;5072424;28;20043;-82
2024/01/27 00:31:13;;;;;;;20.70;5.28;;;;;;;;;;5072610;28;20040;-81
2024/01/27 00:33:39;;;;;;;27.88;8.63;;;;;;;;;;5076444;28;20020;-81
2024/01/27 00:36:05;;;;;;;29.52;7.07;;;;;;;;;;5089446;28;20054;-80
2024/01/27 00:38:32;;;;;;;30.15;7.38;;;;;;;;;;5093896;28;20037;-81
2024/01/27 00:40:58;;;;;;;24.90;5.65;;;;;;;;;;5085218;28;20318;-80
2024/01/27 00:43:24;;;;;;;20.02;6.30;;;;;;;;;;5083589;28;20051;-80
2024/01/27 00:45:50;;;;;;;25.77;6.32;;;;;;;;;;5079438;28;20684;-81
2024/01/27 00:48:16;;;;;;;30.20;7.30;;;;;;;;;;5072102;28;20024;-82
2024/01/27 00:50:42;;;;;;;24.85;7.32;;;;;;;;;;5071756;28;20036;-83
2024/01/27 00:53:08;;;;;;;23.83;6.63;;;;;;;;;;5072134;28;20027;-83
2024/01/27 00:55:34;;;;;;;27.50;6.63;;;;;;;;;;5071935;28;20029;-83
2024/01/27 00:58:00;;;;;;;28.63;6.65;;;;;;;;;;5071891;28;20074;-83
2024/01/27 01:00:26;;;;;;;26.75;7.55;;;;;;;;;;5071968;28;20038;-81
2024/01/27 01:02:52;;;;;;;25.15;6.30;;;;;;;;;;5071523;28;20550;-83
2024/01/27 01:05:18;;;;;;;24.63;7.07;;;;;;;;;;5071478;28;20029;-81
2024/01/27 01:07:44;;;;;;;29.33;6.72;;;;;;;;;;5071575;28;20021;-80
2024/01/27 01:10:10;;;;;;;23.35;5.68;;;;;;;;;;5071895;28;20079;-83
2024/01/27 01:12:36;;;;;;;26.15;7.65;;;;;;;;;;5071803;28;20454;-82
2024/01/27 01:15:02;;;;;;;24.48;5.80;;;;;;;;;;5071718;28;20032;-82
2024/01/27 01:17:28;;;;;;;24.88;7.70;;;;;;;;;;5071773;28;20021;-82
2024/01/27 01:19:54;;;;;;;25.63;6.50;;;;;;;;;;5071750;28;20081;-81
2024/01/27 01:22:20;;;;;;;21.10;7.03;;;;;;;;;;5071630;28;20070;-81
2024/01/27 01:24:46;;;;;;;23.75;7.45;;;;;;;;;;5071454;28;20475;-81
2024/01/27 01:27:12;;;;;;;22.65;6.38;;;;;;;;;;5073044;28;20028;-81
2024/01/27 01:29:38;;;;;;;21.98;6.00;;;;;;;;;;5071856;28;20036;-81
2024/01/27 01:32:05;;;;;;;16.75;5.78;;;;;;;;;;5072668;28;20469;-81
2024/01/27 01:34:31;;;;;;;33.67;7.35;;;;;;;;;;5075730;28;20029;-77
2024/01/27 01:36:57;;;;;;;35.05;8.27;;;;;;;;;;5089951;28;20050;-77
2024/01/27 01:39:24;;;;;;;22.20;7.25;;;;;;;;;;5091187;28;20009;-77
2024/01/27 01:41:50;;;;;;;22.58;9.10;;;;;;;;;;5091990;28;20032;-81
2024/01/27 01:44:16;;;;;;;23.75;9.55;;;;;;;;;;5085235;28;20009;-83
2024/01/27 01:46:42;;;;;;;35.30;8.35;;;;;;;;;;5074791;28;20561;-79
2024/01/27 01:49:08;;;;;;;24.35;8.68;;;;;;;;;;5070883;28;20052;-78
2024/01/27 01:51:34;;;;;;;28.55;7.38;;;;;;;;;;5070981;28;20069;-78
2024/01/27 01:54:00;;;;;;;22.17;6.45;;;;;;;;;;5070876;28;20033;-78
2024/01/27 01:56:26;;;;;;;33.08;7.70;;;;;;;;;;5071176;28;20020;-79
2024/01/27 01:58:54;;;;;;;20.33;5.90;;;;;;;;;;5071388;28;20020;-80
2024/01/27 02:01:21;;;;;;;23.08;7.72;;;;;;;;;;5074877;28;20033;-80
2024/01/27 02:03:54;;;;;;;27.00;7.07;;;;;;;;;;5074929;28;20028;-81
2024/01/27 02:06:20;;;;;;;25.15;7.05;;;;;;;;;;5074971;28;20060;-81
2024/01/27 02:08:46;;;;;;;25.67;5.75;;;;;;;;;;5076024;28;20028;-81
2024/01/27 02:11:12;;;;;;;29.63;6.70;;;;;;;;;;5075943;28;20043;-85
2024/01/27 02:13:38;;;;;;;23.52;6.10;;;;;;;;;;5074946;28;20533;-82
2024/01/27 02:16:04;;;;;;;30.02;6.80;;;;;;;;;;5074655;28;20430;-83
2024/01/27 02:18:30;;;;;;;27.40;6.63;;;;;;;;;;5074588;28;20116;-83
2024/01/27 02:20:56;;;;;;;22.05;6.78;;;;;;;;;;5074565;28;20052;-84
2024/01/27 02:23:22;;;;;;;32.70;6.53;;;;;;;;;;5075016;28;20025;-84
2024/01/27 02:25:50;;;;;;;20.65;6.40;;;;;;;;;;5074306;28;20024;-85
2024/01/27 02:28:16;;;;;;;21.63;6.53;;;;;;;;;;5074369;28;20028;-83
2024/01/27 02:30:42;;;;;;;25.42;6.03;;;;;;;;;;5074358;28;20134;-82
2024/01/27 02:33:08;;;;;;;21.88;6.65;;;;;;;;;;5074136;28;20031;-81
2024/01/27 02:35:34;;;;;;;24.95;6.50;;;;;;;;;;5074290;28;20025;-82
2024/01/27 02:38:00;;;;;;;23.95;6.90;;;;;;;;;;5074152;28;20389;-80
2024/01/27 02:40:26;;;;;;;23.17;6.63;;;;;;;;;;5074408;28;20035;-80
2024/01/27 02:42:52;;;;;;;41.45;13.70;;;;;;;;;;5074160;28;20029;-78
2024/01/27 02:45:18;;;;;;;40.80;14.10;;;;;;;;;;5074721;28;20020;-80
2024/01/27 02:47:44;;;;;;;31.20;10.63;;;;;;;;;;5074122;28;20032;-79
2024/01/27 02:50:10;;;;;;;73.75;24.02;;;;;;;;;;5073866;28;20040;-81
2024/01/27 02:52:36;;;;;;;78.47;24.13;;;;;;;;;;5074213;28;20016;-81
2024/01/27 02:55:02;;;;;;;81.20;25.58;;;;;;;;;;5073971;28;20017;-81
2024/01/27 02:57:28;;;;;;;71.68;21.95;;;;;;;;;;5073977;28;20029;-82
2024/01/27 02:59:54;;;;;;;138.48;39.30;;;;;;;;;;5073639;28;20503;-81
2024/01/27 03:02:20;;;;;;;158.13;44.80;;;;;;;;;;5073708;28;20052;-79
2024/01/27 03:04:47;;;;;;;51.58;15.10;;;;;;;;;;5073640;28;20028;-81
2024/01/27 03:07:13;;;;;;;40.92;11.32;;;;;;;;;;5073600;28;20040;-81
2024/01/27 03:09:39;;;;;;;48.78;12.35;;;;;;;;;;5073820;28;20036;-81
2024/01/27 03:12:05;;;;;;;38.38;10.40;;;;;;;;;;5073485;28;20021;-80
2024/01/27 03:14:31;;;;;;;30.13;7.78;;;;;;;;;;5073660;28;20372;-81
2024/01/27 03:16:57;;;;;;;25.80;7.15;;;;;;;;;;5073433;28;20024;-81
2024/01/27 03:19:23;;;;;;;43.72;12.57;;;;;;;;;;5073419;28;20036;-81
2024/01/27 03:21:49;;;;;;;86.78;28.67;;;;;;;;;;5073646;28;20024;-81
2024/01/27 03:24:15;;;;;;;129.85;42.05;;;;;;;;;;5073431;28;20024;-80
2024/01/27 03:26:41;;;;;;;72.15;22.55;;;;;;;;;;5073600;28;20025;-80
2024/01/27 03:29:07;;;;;;;59.85;17.67;;;;;;;;;;5073130;28;20017;-82
2024/01/27 03:31:34;;;;;;;57.85;17.02;;;;;;;;;;5073444;28;20469;-82
2024/01/27 03:34:00;;;;;;;37.67;11.82;;;;;;;;;;5073150;28;20416;-81
2024/01/27 03:36:27;;;;;;;39.85;13.07;;;;;;;;;;5073418;28;20024;-81
2024/01/27 03:38:53;;;;;;;33.88;9.57;;;;;;;;;;5072969;28;20031;-80
2024/01/27 03:41:19;;;;;;;42.60;9.93;;;;;;;;;;5073333;28;20021;-80
2024/01/27 03:43:45;;;;;;;27.25;9.30;;;;;;;;;;5073368;28;20035;-80
2024/01/27 03:46:11;;;;;;;26.98;9.85;;;;;;;;;;5073142;28;20032;-79
2024/01/27 03:48:37;;;;;;;29.23;12.48;;;;;;;;;;5073785;28;20028;-79
2024/01/27 03:51:03;;;;;;;29.25;11.18;;;;;;;;;;5073989;28;20054;-78
2024/01/27 03:53:29;;;;;;;34.25;11.57;;;;;;;;;;5077324;28;20052;-77
2024/01/27 03:56:02;;;;;;;23.80;9.05;;;;;;;;;;5079388;28;20029;-78
2024/01/27 03:58:28;;;;;;;33.47;8.88;;;;;;;;;;5078874;28;20349;-77
2024/01/27 04:00:54;;;;;;;30.83;8.45;;;;;;;;;;5074324;28;20029;-79
2024/01/27 04:03:20;;;;;;;33.97;8.30;;;;;;;;;;5072616;28;20392;-79
2024/01/27 04:05:46;;;;;;;22.13;8.63;;;;;;;;;;5072648;28;20025;-80
2024/01/27 04:08:12;;;;;;;21.95;8.63;;;;;;;;;;5072558;28;20020;-80
2024/01/27 04:10:38;;;;;;;32.55;7.82;;;;;;;;;;5072527;28;20082;-80
2024/01/27 04:13:05;;;;;;;29.73;8.57;;;;;;;;;;5072335;28;20029;-80
2024/01/27 04:15:38;;;;;;;25.55;8.63;;;;;;;;;;5073797;28;20012;-80
2024/01/27 04:18:04;;;;;;;22.15;8.25;;;;;;;;;;5072212;28;20063;-79
2024/01/27 04:20:30;;;;;;;27.05;8.93;;;;;;;;;;5071964;28;20057;-79
2024/01/27 04:22:56;;;;;;;24.55;7.43;;;;;;;;;;5071718;28;20032;-80
2024/01/27 04:25:22;;;;;;;19.00;7.18;;;;;;;;;;5072300;28;20071;-80
2024/01/27 04:27:48;;;;;;;24.17;8.27;;;;;;;;;;5072270;28;20024;-80
2024/01/27 04:30:14;;;;;;;23.00;7.68;;;;;;;;;;5071936;28;20039;-79
2024/01/27 04:32:40;;;;;;;25.40;10.00;;;;;;;;;;5072157;28;20384;-80
2024/01/27 04:35:10;;;;;;;23.48;7.85;;;;;;;;;;5071840;28;20062;-79
2024/01/27 04:37:36;;;;;;;31.25;8.50;;;;;;;;;;5071961;28;20020;-79
2024/01/27 04:40:02;;;;;;;20.42;8.02;;;;;;;;;;5071789;28;20020;-81
2024/01/27 04:42:28;;;;;;;27.27;10.45;;;;;;;;;;5071874;28;20031;-80
2024/01/27 04:44:54;;;;;;;19.52;7.80;;;;;;;;;;5073042;28;20020;-80
2024/01/27 04:47:20;;;;;;;22.35;8.90;;;;;;;;;;5071779;28;20036;-82
2024/01/27 04:49:46;;;;;;;31.90;9.75;;;;;;;;;;5071437;28;20040;-81
2024/01/27 04:52:12;;;;;;;30.42;10.27;;;;;;;;;;5071985;28;20017;-82
2024/01/27 04:54:38;;;;;;;33.63;10.18;;;;;;;;;;5071593;28;20028;-82
2024/01/27 04:57:05;;;;;;;26.08;10.15;;;;;;;;;;5071511;28;20021;-82
2024/01/27 04:59:31;;;;;;;29.60;10.95;;;;;;;;;;5071623;28;20475;-82
2024/01/27 05:01:57;;;;;;;34.80;10.75;;;;;;;;;;5071693;28;20048;-81
2024/01/27 05:04:26;;;;;;;27.75;11.38;;;;;;;;;;5071698;28;20047;-81
2024/01/27 05:06:52;;;;;;;22.60;11.50;;;;;;;;;;5071833;28;20023;-81
2024/01/27 05:09:18;;;;;;;28.08;10.32;;;;;;;;;;5071412;28;20021;-81
2024/01/27 05:11:45;;;;;;;29.45;10.60;;;;;;;;;;5071399;28;20563;-82
2024/01/27 05:14:11;;;;;;;26.38;10.32;;;;;;;;;;5071224;28;20024;-80
2024/01/27 05:16:37;;;;;;;26.60;11.23;;;;;;;;;;5071522;28;20029;-80
2024/01/27 05:19:03;;;;;;;38.83;11.23;;;;;;;;;;5071139;28;20074;-81
2024/01/27 05:21:29;;;;;;;31.10;11.65;;;;;;;;;;5071620;28;20206;-85
2024/01/27 05:23:56;;;;;;;35.50;12.38;;;;;;;;;;5071370;28;20102;-84
2024/01/27 05:26:22;;;;;;;30.88;12.50;;;;;;;;;;5071199;28;20028;-82
2024/01/27 05:28:48;;;;;;;31.10;11.50;;;;;;;;;;5071394;28;20021;-84
2024/01/27 05:31:15;;;;;;;36.00;11.88;;;;;;;;;;5072538;28;20029;-85
2024/01/27 05:33:41;;;;;;;33.85;11.40;;;;;;;;;;5070836;28;20025;-86
2024/01/27 05:36:07;;;;;;;38.33;12.75;;;;;;;;;;5071182;28;20472;-83
2024/01/27 05:38:33;;;;;;;32.83;12.98;;;;;;;;;;5071162;28;20084;-83
2024/01/27 05:41:02;;;;;;;35.72;13.20;;;;;;;;;;5071226;28;20031;-83
2024/01/27 05:43:29;;;;;;;31.03;13.30;;;;;;;;;;5071332;28;20128;-84
2024/01/27 05:45:55;;;;;;;29.48;12.63;;;;;;;;;;5071262;28;20024;-83
2024/01/27 05:48:21;;;;;;;31.88;12.85;;;;;;;;;;5071147;28;20036;-83
2024/01/27 05:51:00;;;;;;;32.17;13.32;;;;;;;;;;5071247;28;20663;-81
2024/01/27 05:53:26;;;;;;;29.20;13.02;;;;;;;;;;5071375;28;20029;-80
2024/01/27 05:55:53;;;;;;;34.38;14.25;;;;;;;;;;5071401;28;20032;-80
2024/01/27 05:58:22;;;;;;;33.40;12.73;;;;;;;;;;5071109;28;20024;-79
2024/01/27 06:00:48;;;;;;;39.05;14.30;;;;;;;;;;5071342;28;20051;-81
2024/01/27 06:03:16;;;;;;;37.03;14.70;;;;;;;;;;5071085;28;20463;-80
2024/01/27 06:05:42;;;;;;;42.42;14.40;;;;;;;;;;5071890;28;20017;-80
2024/01/27 06:08:08;;;;;;;39.50;13.48;;;;;;;;;;5073701;28;20438;-82
2024/01/27 06:10:38;;;;;;;32.60;13.55;;;;;;;;;;5083206;28;20033;-81
2024/01/27 06:13:04;;;;;;;41.10;13.10;;;;;;;;;;5087318;28;20020;-78
2024/01/27 06:15:30;;;;;;;37.08;12.68;;;;;;;;;;5088695;28;20025;-80
2024/01/27 06:17:57;;;;;;;36.03;14.43;;;;;;;;;;5096174;28;20012;-82
2024/01/27 06:20:23;;;;;;;30.20;13.38;;;;;;;;;;5089257;28;20044;-81
2024/01/27 06:22:49;;;;;;;37.35;14.00;;;;;;;;;;5076621;28;20111;-84
2024/01/27 06:25:16;;;;;;;39.80;13.32;;;;;;;;;;5073312;28;20029;-84
2024/01/27 06:27:42;;;;;;;41.80;14.57;;;;;;;;;;5072605;28;20024;-82
2024/01/27 06:30:09;;;;;;;31.67;14.15;;;;;;;;;;5077134;28;20456;-81
2024/01/27 06:32:35;;;;;;;30.40;13.40;;;;;;;;;;5070806;28;20025;-79
2024/01/27 06:35:02;;;;;;;33.65;13.10;;;;;;;;;;5070700;28;20034;-80
2024/01/27 06:37:28;;;;;;;27.05;11.55;;;;;;;;;;5070829;28;20158;-83
2024/01/27 06:39:54;;;;;;;39.63;13.55;;;;;;;;;;5070341;28;20039;-81
2024/01/27 06:42:21;;;;;;;30.35;13.65;;;;;;;;;;5070429;28;20484;-82
2024/01/27 06:44:47;;;;;;;35.75;13.25;;;;;;;;;;5070874;28;20475;-82
2024/01/27 06:47:13;;;;;;;33.50;13.10;;;;;;;;;;5074038;28;20032;-80
2024/01/27 06:49:39;;;;;;;39.40;13.27;;;;;;;;;;5074134;28;20103;-82
2024/01/27 06:52:05;;;;;;;37.35;12.80;;;;;;;;;;5074149;28;20037;-83
2024/01/27 06:54:31;;;;;;;35.58;14.52;;;;;;;;;;5074120;28;20028;-82
2024/01/27 06:56:57;;;;;;;33.00;13.80;;;;;;;;;;5073783;28;20047;-78
2024/01/27 06:59:23;;;;;;;32.85;14.70;;;;;;;;;;5073480;28;20028;-83
2024/01/27 07:01:49;;;;;;;37.38;13.82;;;;;;;;;;5073521;28;20041;-81
2024/01/27 07:04:15;;;;;;;37.13;14.82;;;;;;;;;;5073294;28;20439;-82
2024/01/27 07:06:41;;;;;;;24.52;12.70;;;;;;;;;;5074778;28;20017;-82
2024/01/27 07:09:09;;;;;;;26.10;13.18;;;;;;;;;;5073593;28;20070;-80
2024/01/27 07:11:35;;;;;;;34.58;13.05;;;;;;;;;;5073719;28;20032;-79
2024/01/27 07:14:01;;;;;;;33.10;14.68;;;;;;;;;;5073706;28;20066;-82
2024/01/27 07:16:27;;;;;;;35.05;14.70;;;;;;;;;;5064124;28;20027;-82
2024/01/27 07:18:53;;;;;;;28.63;12.57;;;;;;;;;;5059994;28;20024;-80
2024/01/27 07:21:19;;;;;;;28.77;14.65;;;;;;;;;;5060966;28;20021;-80
2024/01/27 07:23:45;;;;;;;25.55;11.38;;;;;;;;;;5053767;28;20017;-82
2024/01/27 07:26:11;;;;;;;35.20;13.10;;;;;;;;;;5065912;28;20059;-81
2024/01/27 07:28:38;;;;;;;33.67;13.98;;;;;;;;;;5073479;28;20115;-83
2024/01/27 07:31:04;;;;;;;30.00;13.93;;;;;;;;;;5074537;28;20028;-79
2024/01/27 07:33:30;;;;;;;33.17;15.48;;;;;;;;;;5073137;28;20445;-84
2024/01/27 07:35:57;;;;;;;33.72;13.98;;;;;;;;;;5073456;28;20021;-81
2024/01/27 07:38:23;;;;;;;36.05;15.40;;;;;;;;;;5073013;28;20460;-82
2024/01/27 07:40:49;;;;;;;49.85;19.17;;;;;;;;;;5073101;28;20526;-81
2024/01/27 07:43:15;;;;;;;44.35;18.85;;;;;;;;;;5052159;28;20037;-80
2024/01/27 07:45:41;;;;;;;45.53;19.83;;;;;;;;;;5052742;28;20480;-80
2024/01/27 07:48:07;;;;;;;31.38;16.70;;;;;;;;;;5052779;28;20033;-84
2024/01/27 07:50:33;;;;;;;43.78;20.30;;;;;;;;;;5052887;28;20029;-85
2024/01/27 07:52:59;;;;;;;31.00;15.57;;;;;;;;;;5059356;28;20028;-85
2024/01/27 07:55:25;;;;;;;32.13;16.02;;;;;;;;;;5072278;28;20032;-83
2024/01/27 07:57:51;;;;;;;36.65;17.40;;;;;;;;;;5072121;28;20043;-83
2024/01/27 08:00:18;;;;;;;39.17;17.13;;;;;;;;;;5072294;28;20032;-82
2024/01/27 08:02:44;;;;;;;40.35;17.60;;;;;;;;;;5071789;28;20056;-82
2024/01/27 08:05:10;;;;;;;35.60;16.60;;;;;;;;;;5071908;28;20392;-83
2024/01/27 08:07:36;;;;;;;35.53;15.38;;;;;;;;;;5072305;28;20385;-83
2024/01/27 08:10:03;;;;;;;20.55;11.13;;;;;;;;;;5075321;28;20025;-84
2024/01/27 08:12:29;;;;;;;24.75;12.48;;;;;;;;;;5072177;28;20079;-83
2024/01/27 08:14:57;;;;;;;24.20;10.80;;;;;;;;;;5073620;28;20040;-83
2024/01/27 08:17:23;;;;;;;25.33;10.63;;;;;;;;;;5073586;28;20027;-84
2024/01/27 08:19:49;;;;;;;25.50;9.82;;;;;;;;;;5074987;28;20028;-81
2024/01/27 08:22:15;;;;;;;27.30;10.00;;;;;;;;;;5073205;28;20029;-83
2024/01/27 08:24:41;;;;;;;23.50;10.50;;;;;;;;;;5072450;28;20025;-83
2024/01/27 08:27:07;;;;;;;19.23;9.52;;;;;;;;;;5072611;28;20024;-82
2024/01/27 08:29:33;;;;;;;26.02;10.27;;;;;;;;;;5072790;28;20032;-83
2024/01/27 08:31:59;;;;;;;20.00;8.65;;;;;;;;;;5074982;28;20027;-82
2024/01/27 08:34:25;;;;;;;20.95;8.98;;;;;;;;;;5092590;28;20025;-81
2024/01/27 08:36:51;;;;;;;24.13;9.18;;;;;;;;;;5097279;28;20084;-83
2024/01/27 08:39:17;;;;;;;19.35;7.78;;;;;;;;;;5097423;28;20033;-84
2024/01/27 08:41:43;;;;;;;29.80;9.90;;;;;;;;;;5086466;28;20024;-84
2024/01/27 08:44:09;;;;;;;22.00;8.98;;;;;;;;;;5076722;28;20035;-84
2024/01/27 08:46:35;;;;;;;19.35;9.25;;;;;;;;;;5062396;28;20068;-84
2024/01/27 08:49:02;;;;;;;24.98;8.48;;;;;;;;;;5055517;28;20035;-84
2024/01/27 08:51:28;;;;;;;19.20;8.13;;;;;;;;;;5055593;28;20610;-84
2024/01/27 08:53:54;;;;;;;20.08;9.57;;;;;;;;;;5057148;28;20063;-84
2024/01/27 08:56:20;;;;;;;19.90;7.45;;;;;;;;;;5055710;28;20111;-84
2024/01/27 08:58:49;;;;;;;19.83;8.13;;;;;;;;;;5055609;28;20069;-84
2024/01/27 09:01:19;;;;;;;22.10;9.40;;;;;;;;;;5054388;28;20112;-84
2024/01/27 09:03:46;;;;;;;22.77;9.35;;;;;;;;;;5052827;28;20079;-84
2024/01/27 09:06:12;;;;;;;16.63;7.97;;;;;;;;;;5054336;28;20048;-87
2024/01/27 09:08:39;;;;;;;17.73;8.38;;;;;;;;;;5053129;28;20028;-84
2024/01/27 09:11:05;;;;;;;18.70;9.25;;;;;;;;;;5052462;28;20572;-84
2024/01/27 09:13:31;;;;;;;19.60;8.93;;;;;;;;;;5052520;28;20075;-82
2024/01/27 09:15:58;;;;;;;15.50;7.43;;;;;;;;;;5052605;28;20047;-83
2024/01/27 09:18:25;;;;;;;23.55;9.50;;;;;;;;;;5053037;28;20025;-81
2024/01/27 09:20:51;;;;;;;21.65;9.40;;;;;;;;;;5054881;28;20029;-83
2024/01/27 09:23:18;;;;;;;22.58;8.77;;;;;;;;;;5055337;28;20108;-82
2024/01/27 09:25:44;;;;;;;26.85;9.85;;;;;;;;;;5054309;28;20500;-82
2024/01/27 09:28:12;;;;;;;21.40;8.90;;;;;;;;;;5055961;28;20029;-84
2024/01/27 09:30:38;;;;;;;21.52;9.52;;;;;;;;;;5054405;28;20033;-85
2024/01/27 09:33:04;;;;;;;25.65;9.10;;;;;;;;;;5054264;28;20029;-85
2024/01/27 09:35:30;;;;;;;18.92;8.93;;;;;;;;;;5054424;28;20052;-88
2024/01/27 09:37:57;;;;;;;22.67;9.65;;;;;;;;;;5054239;28;20025;-85
2024/01/27 09:40:23;;;;;;;24.42;10.32;;;;;;;;;;5054730;28;20491;-86
2024/01/27 09:42:53;;;;;;;20.58;9.60;;;;;;;;;;5054921;28;20082;-83
2024/01/27 09:45:19;;;;;;;;;;;;;;;;;;5056771;28;20413;-84
2024/01/27 09:47:46;;;;;;;26.85;10.68;;;;;;;;;;5054252;28;19981;-85
2024/01/27 09:50:12;;;;;;;18.98;9.13;;;;;;;;;;5054933;28;20051;-84
2024/01/27 09:52:38;;;;;;;18.30;9.75;;;;;;;;;;5054592;28;20021;-85
2024/01/27 09:55:04;;;;;;;20.70;7.97;;;;;;;;;;5054884;28;20064;-84
2024/01/27 09:57:34;;;;;;;24.40;9.40;;;;;;;;;;5037866;28;20033;-84
2024/01/27 10:00:03;;;;;;;27.73;9.60;;;;;;;;;;5054590;28;20025;-84
2024/01/27 10:02:31;;;;;;;15.27;7.22;;;;;;;;;;5037780;28;20295;-82
2024/01/27 10:04:57;;;;;;;19.27;8.95;;;;;;;;;;5054854;28;20043;-85
2024/01/27 10:07:24;;;;;;;19.20;9.02;;;;;;;;;;5054145;28;20124;-83
2024/01/27 10:09:50;;;;;;;22.02;9.20;;;;;;;;;;5055099;28;20025;-84
2024/01/27 10:12:17;;;;;;;21.33;9.32;;;;;;;;;;5054588;28;20112;-85
2024/01/27 10:14:46;;;;;;;21.73;10.70;;;;;;;;;;5054995;28;20029;-86
2024/01/27 10:17:13;;;;;;;19.00;8.02;;;;;;;;;;5055049;28;20028;-86
2024/01/27 10:19:39;;;;;;;17.80;8.35;;;;;;;;;;5054957;28;20029;-85
2024/01/27 10:22:05;;;;;;;23.15;8.27;;;;;;;;;;5042684;28;20029;-86
2024/01/27 10:24:33;;;;;;;20.70;8.98;;;;;;;;;;5058526;28;20048;-85
2024/01/27 10:27:03;;;;;;;18.25;9.07;;;;;;;;;;5058875;28;20025;-86
2024/01/27 10:29:29;;;;;;;25.10;8.95;;;;;;;;;;5058976;28;20029;-86
2024/01/27 10:31:55;;;;;;;20.05;8.45;;;;;;;;;;5059156;28;20029;-86
2024/01/27 10:34:22;;;;;;;16.55;8.50;;;;;;;;;;5060943;28;20480;-88
2024/01/27 10:36:48;;;;;;;18.70;7.47;;;;;;;;;;5059097;28;20051;-84
2024/01/27 10:39:15;;;;;;;16.88;7.63;;;;;;;;;;5059259;28;20507;-85
2024/01/27 10:41:43;;;;;;;17.70;7.53;;;;;;;;;;5059385;28;20033;-86
2024/01/27 10:44:13;;;;;;;17.85;8.27;;;;;;;;;;5059011;28;20031;-86
2024/01/27 10:46:39;;;;;;;18.75;8.27;;;;;;;;;;5059644;28;20047;-86
2024/01/27 10:49:07;;;;;;;19.02;8.48;;;;;;;;;;5059259;28;20025;-87
2024/01/27 10:51:36;;;;;;;24.33;9.73;;;;;;;;;;5062062;28;20353;-85
2024/01/27 10:54:06;;;;;;;21.48;8.75;;;;;;;;;;5070510;28;20040;-86
2024/01/27 10:56:33;;;;;;;22.70;9.02;;;;;;;;;;5079329;28;20031;-86
2024/01/27 10:59:00;;;;;;;21.63;7.60;;;;;;;;;;5079804;28;20035;-86
2024/01/27 11:01:26;;;;;;;20.08;8.77;;;;;;;;;;5074546;28;20033;-85
2024/01/27 11:03:54;;;;;;;19.27;8.13;;;;;;;;;;5067688;28;20033;-86
2024/01/27 11:06:22;;;;;;;23.52;7.60;;;;;;;;;;5060974;28;20036;-88
2024/01/27 11:08:50;;;;;;;19.38;9.55;;;;;;;;;;5059634;28;20032;-88
2024/01/27 11:11:16;;;;;;;20.38;8.95;;;;;;;;;;5059950;28;20021;-88
2024/01/27 11:13:45;;;;;;;18.70;7.18;;;;;;;;;;5060732;28;20088;-88
2024/01/27 11:16:17;;;;;;;21.92;9.13;;;;;;;;;;5060535;28;20025;-88
2024/01/27 11:18:43;;;;;;;17.70;7.57;;;;;;;;;;5060742;28;20025;-90
2024/01/27 11:21:13;;;;;;;16.83;7.28;;;;;;;;;;5059356;28;20029;-84
2024/01/27 11:23:39;;;;;;;21.20;7.22;;;;;;;;;;5057771;28;20360;-76
2024/01/27 11:26:06;;;;;;;20.38;8.95;;;;;;;;;;5057084;28;20070;-80
2024/01/27 11:28:35;;;;;;;17.92;7.28;;;;;;;;;;5056736;28;20056;-82
2024/01/27 11:31:05;;;;;;;23.58;7.78;;;;;;;;;;5057056;28;20025;-83
2024/01/27 11:33:32;;;;;;;13.73;7.03;;;;;;;;;;5040224;28;20032;-82
2024/01/27 11:36:05;;;;;;;21.42;9.20;;;;;;;;;;5057390;28;20051;-83
2024/01/27 11:38:32;;;;;;;12.15;5.28;;;;;;;;;;5057502;28;20116;-83
2024/01/27 11:40:59;;;;;;;11.88;4.57;;;;;;;;;;5057695;28;20025;-82
2024/01/27 11:43:25;;;;;;;13.43;5.50;;;;;;;;;;5057716;28;20025;-83
2024/01/27 11:46:01;;;;;;;16.17;7.05;;;;;;;;;;5058990;28;20088;-83
2024/01/27 11:48:31;;;;;;;20.85;6.03;;;;;;;;;;5060020;28;20044;-84
2024/01/27 11:51:24;;;;;;;12.17;4.97;;;;;;;;;;5057101;28;20040;-83
2024/01/27 11:53:50;;;;;;;12.25;5.53;;;;;;;;;;5055820;28;20043;-83
2024/01/27 11:56:17;;;;;;;17.27;5.97;;;;;;;;;;5056014;28;20029;-84
2024/01/27 11:58:48;;;;;;;15.25;6.38;;;;;;;;;;5055819;28;20025;-83
2024/01/27 12:01:14;;;;;;;17.02;5.93;;;;;;;;;;5055966;28;20051;-82
2024/01/27 12:03:41;;;;;;;15.85;5.28;;;;;;;;;;5056899;28;20053;-83
2024/01/27 12:06:07;;;;;;;10.40;3.63;;;;;;;;;;5057921;28;20036;-82
2024/01/27 12:08:35;;;;;;;21.30;7.22;;;;;;;;;;5056689;28;20083;-84
2024/01/27 12:11:02;;;;;;;15.57;6.75;;;;;;;;;;5056309;28;20107;-83
2024/01/27 12:13:28;;;;;;;14.85;4.85;;;;;;;;;;5056184;28;20602;-85
2024/01/27 12:15:54;;;;;;;10.95;3.60;;;;;;;;;;5055841;28;20033;-83
2024/01/27 12:18:20;;;;;;;13.02;4.70;;;;;;;;;;5056867;28;20029;-85
2024/01/27 12:20:48;;;;;;;11.45;4.03;;;;;;;;;;5056212;28;20472;-82
2024/01/27 12:23:14;;;;;;;14.60;5.32;;;;;;;;;;5056957;28;20115;-84
2024/01/27 12:25:40;;;;;;;18.25;5.20;;;;;;;;;;5058012;28;20017;-83
2024/01/27 12:28:07;;;;;;;14.13;4.60;;;;;;;;;;5056751;28;20017;-83
2024/01/27 12:30:33;;;;;;;12.00;4.72;;;;;;;;;;5057548;28;20032;-84
2024/01/27 12:33:00;;;;;;;11.20;3.97;;;;;;;;;;5059098;28;20029;-84
2024/01/27 12:35:28;;;;;;;11.05;4.55;;;;;;;;;;5058702;28;20061;-83
2024/01/27 12:37:54;;;;;;;8.48;3.30;;;;;;;;;;5060337;28;20033;-83
2024/01/27 12:40:21;;;;;;;11.20;4.45;;;;;;;;;;5074688;28;20063;-85
2024/01/27 12:42:48;;;;;;;12.10;3.78;;;;;;;;;;5080744;28;20078;-83
2024/01/27 12:45:14;;;;;;;10.60;3.85;;;;;;;;;;5081966;28;20036;-84
2024/01/27 12:47:40;;;;;;;11.43;4.40;;;;;;;;;;5078802;28;20100;-84
2024/01/27 12:50:07;;;;;;;16.58;5.80;;;;;;;;;;5081931;28;20048;-83
2024/01/27 12:52:33;;;;;;;14.43;4.68;;;;;;;;;;5079534;28;20032;-85
2024/01/27 12:54:59;;;;;;;11.23;4.32;;;;;;;;;;5080851;28;20024;-86
2024/01/27 12:57:25;;;;;;;13.60;4.95;;;;;;;;;;5079245;28;20472;-86
2024/01/27 12:59:51;;;;;;;11.82;3.33;;;;;;;;;;5078088;28;20035;-84
2024/01/27 13:02:17;;;;;;;16.05;4.47;;;;;;;;;;5078793;28;20048;-85
2024/01/27 13:04:43;;;;;;;12.93;3.65;;;;;;;;;;5076478;28;20025;-86
2024/01/27 13:07:10;;;;;;;11.27;3.80;;;;;;;;;;5076925;28;20028;-86
2024/01/27 13:09:37;;;;;;;13.75;4.85;;;;;;;;;;5077464;28;20377;-86
2024/01/27 13:12:03;;;;;;;11.20;3.72;;;;;;;;;;5082623;28;20047;-85
2024/01/27 13:14:29;;;;;;;12.60;3.90;;;;;;;;;;5094122;28;20001;-86
2024/01/27 13:16:56;;;;;;;12.52;2.70;;;;;;;;;;5096874;28;20017;-84
2024/01/27 13:19:22;;;;;;;8.75;3.08;;;;;;;;;;5089782;28;20058;-83
2024/01/27 13:21:48;;;;;;;12.00;3.67;;;;;;;;;;5074611;28;20533;-84
2024/01/27 13:24:15;;;;;;;8.88;3.40;;;;;;;;;;5074080;28;20036;-85
2024/01/27 13:26:41;;;;;;;10.90;3.42;;;;;;;;;;5073998;28;20029;-86
2024/01/27 13:29:08;;;;;;;11.75;4.15;;;;;;;;;;5073055;28;20025;-86
2024/01/27 13:31:34;;;;;;;13.82;4.65;;;;;;;;;;5072186;28;20491;-87
2024/01/27 13:34:01;;;;;;;10.30;3.35;;;;;;;;;;5072766;28;20620;-85
2024/01/27 13:36:27;;;;;;;11.68;3.47;;;;;;;;;;5072517;28;20059;-86
2024/01/27 13:38:53;;;;;;;11.45;2.42;;;;;;;;;;5073145;28;20119;-85
2024/01/27 13:41:19;;;;;;;15.60;5.70;;;;;;;;;;5072035;28;20066;-81
2024/01/27 13:43:46;;;;;;;11.98;3.83;;;;;;;;;;5071059;28;20028;-81
2024/01/27 13:46:12;;;;;;;10.80;3.30;;;;;;;;;;5071490;28;20139;-83
2024/01/27 13:48:38;;;;;;;17.25;5.78;;;;;;;;;;5071419;28;20021;-82
2024/01/27 13:51:04;;;;;;;19.30;4.97;;;;;;;;;;5070950;28;20036;-82
2024/01/27 13:53:30;;;;;;;11.85;3.90;;;;;;;;;;5071089;28;20032;-83
2024/01/27 13:55:56;;;;;;;16.58;5.10;;;;;;;;;;5073436;28;20028;-82
2024/01/27 13:58:23;;;;;;;11.32;3.65;;;;;;;;;;5075189;28;20016;-84
2024/01/27 14:00:49;;;;;;;10.25;3.30;;;;;;;;;;5076743;28;20032;-87
2024/01/27 14:03:15;;;;;;;17.75;5.18;;;;;;;;;;5077298;28;20420;-87
2024/01/27 14:05:42;;;;;;;9.85;3.70;;;;;;;;;;5077731;28;20024;-86
2024/01/27 14:08:10;;;;;;;12.07;3.63;;;;;;;;;;5077346;28;20074;-84
2024/01/27 14:10:36;;;;;;;10.50;3.15;;;;;;;;;;5076177;28;20033;-86
2024/01/27 14:13:08;;;;;;;14.27;3.45;;;;;;;;;;5078649;28;20521;-88
2024/01/27 14:15:36;;;;;;;13.20;5.03;;;;;;;;;;5078388;28;20020;-88
2024/01/27 14:18:02;;;;;;;12.70;4.05;;;;;;;;;;5080155;28;20020;-86
2024/01/27 14:20:29;;;;;;;14.40;4.00;;;;;;;;;;5078397;28;20464;-88
2024/01/27 14:22:55;;;;;;;15.93;4.47;;;;;;;;;;5077664;28;20031;-87